sensor_id;sensor_type;location;lat;lon;timestamp;P1;durP1;ratioP1;P2;durP2;ratioP2
53879;SDS011;39791;53.184;5.486;2023-10-13T00:00:37;207.27;;;84.70;;
53879;SDS011;39791;53.184;5.486;2023-10-13T00:03:07;195.98;;;82.38;;
53879;SDS011;39791;53.184;5.486;2023-10-13T00:05:40;212.70;;;86.88;;
53879;SDS011;39791;53.184;5.486;2023-10-13T00:08:07;206.13;;;85.05;;
53879;SDS011;39791;53.184;5.486;2023-10-13T00:10:33;211.25;;;85.13;;
53879;SDS011;39791;53.184;5.486;2023-10-13T00:12:59;216.02;;;87.70;;
53879;SDS011;39791;53.184;5.486;2023-10-13T00:15:38;216.70;;;86.05;;
53879;SDS011;39791;53.184;5.486;2023-10-13T00:18:16;193.48;;;84.28;;
53879;SDS011;39791;53.184;5.486;2023-10-13T00:20:44;185.48;;;85.82;;
53879;SDS011;39791;53.184;5.486;2023-10-13T00:23:14;176.02;;;83.60;;
53879;SDS011;39791;53.184;5.486;2023-10-13T00:25:49;169.65;;;80.97;;
53879;SDS011;39791;53.184;5.486;2023-10-13T00:28:18;182.07;;;84.45;;
53879;SDS011;39791;53.184;5.486;2023-10-13T00:30:51;161.25;;;81.45;;
53879;SDS011;39791;53.184;5.486;2023-10-13T00:33:18;155.48;;;79.53;;
53879;SDS011;39791;53.184;5.486;2023-10-13T00:35:49;165.98;;;77.72;;
53879;SDS011;39791;53.184;5.486;2023-10-13T00:38:16;149.13;;;76.85;;
53879;SDS011;39791;53.184;5.486;2023-10-13T00:40:43;147.20;;;73.63;;
53879;SDS011;39791;53.184;5.486;2023-10-13T00:43:16;117.70;;;65.32;;
53879;SDS011;39791;53.184;5.486;2023-10-13T00:45:46;134.77;;;65.18;;
53879;SDS011;39791;53.184;5.486;2023-10-13T00:48:40;84.53;;;51.38;;
53879;SDS011;39791;53.184;5.486;2023-10-13T00:51:08;62.67;;;47.90;;
53879;SDS011;39791;53.184;5.486;2023-10-13T00:53:53;57.10;;;43.40;;
53879;SDS011;39791;53.184;5.486;2023-10-13T00:56:21;44.88;;;37.00;;
53879;SDS011;39791;53.184;5.486;2023-10-13T00:58:52;40.97;;;36.72;;
53879;SDS011;39791;53.184;5.486;2023-10-13T01:01:18;38.05;;;34.03;;
53879;SDS011;39791;53.184;5.486;2023-10-13T01:06:33;38.55;;;34.38;;
53879;SDS011;39791;53.184;5.486;2023-10-13T01:14:11;41.47;;;37.22;;
53879;SDS011;39791;53.184;5.486;2023-10-13T01:16:38;39.70;;;35.65;;
53879;SDS011;39791;53.184;5.486;2023-10-13T01:19:09;40.28;;;36.08;;
53879;SDS011;39791;53.184;5.486;2023-10-13T01:21:37;40.28;;;35.92;;
53879;SDS011;39791;53.184;5.486;2023-10-13T01:24:05;37.78;;;34.03;;
53879;SDS011;39791;53.184;5.486;2023-10-13T01:26:33;38.45;;;34.45;;
53879;SDS011;39791;53.184;5.486;2023-10-13T01:29:04;37.20;;;33.30;;
53879;SDS011;39791;53.184;5.486;2023-10-13T01:31:42;38.75;;;34.03;;
53879;SDS011;39791;53.184;5.486;2023-10-13T01:34:15;35.38;;;31.77;;
53879;SDS011;39791;53.184;5.486;2023-10-13T01:39:16;34.88;;;31.23;;
53879;SDS011;39791;53.184;5.486;2023-10-13T01:41:46;34.45;;;30.63;;
53879;SDS011;39791;53.184;5.486;2023-10-13T01:44:12;34.78;;;31.40;;
53879;SDS011;39791;53.184;5.486;2023-10-13T01:46:38;36.70;;;33.00;;
53879;SDS011;39791;53.184;5.486;2023-10-13T01:49:04;37.15;;;32.63;;
53879;SDS011;39791;53.184;5.486;2023-10-13T01:51:29;36.97;;;32.97;;
53879;SDS011;39791;53.184;5.486;2023-10-13T01:53:55;37.45;;;33.63;;
53879;SDS011;39791;53.184;5.486;2023-10-13T01:56:23;39.15;;;33.70;;
53879;SDS011;39791;53.184;5.486;2023-10-13T01:58:50;37.75;;;33.00;;
53879;SDS011;39791;53.184;5.486;2023-10-13T02:01:16;38.60;;;34.53;;
53879;SDS011;39791;53.184;5.486;2023-10-13T02:03:55;36.92;;;33.03;;
53879;SDS011;39791;53.184;5.486;2023-10-13T02:06:31;35.10;;;31.48;;
53879;SDS011;39791;53.184;5.486;2023-10-13T02:08:59;37.88;;;32.58;;
53879;SDS011;39791;53.184;5.486;2023-10-13T02:11:34;39.92;;;32.22;;
53879;SDS011;39791;53.184;5.486;2023-10-13T02:14:02;40.85;;;33.33;;
53879;SDS011;39791;53.184;5.486;2023-10-13T02:16:28;37.88;;;34.10;;
53879;SDS011;39791;53.184;5.486;2023-10-13T02:18:56;38.47;;;33.72;;
53879;SDS011;39791;53.184;5.486;2023-10-13T02:21:31;40.78;;;35.05;;
53879;SDS011;39791;53.184;5.486;2023-10-13T02:24:00;38.28;;;34.28;;
53879;SDS011;39791;53.184;5.486;2023-10-13T02:26:29;37.05;;;33.13;;
53879;SDS011;39791;53.184;5.486;2023-10-13T02:28:58;43.15;;;35.10;;
53879;SDS011;39791;53.184;5.486;2023-10-13T02:31:28;36.75;;;31.95;;
53879;SDS011;39791;53.184;5.486;2023-10-13T02:33:53;38.13;;;34.08;;
53879;SDS011;39791;53.184;5.486;2023-10-13T02:36:19;37.17;;;33.25;;
53879;SDS011;39791;53.184;5.486;2023-10-13T02:38:48;36.70;;;33.10;;
53879;SDS011;39791;53.184;5.486;2023-10-13T02:41:17;37.83;;;34.00;;
53879;SDS011;39791;53.184;5.486;2023-10-13T02:43:52;41.65;;;34.20;;
53879;SDS011;39791;53.184;5.486;2023-10-13T02:46:19;38.33;;;34.38;;
53879;SDS011;39791;53.184;5.486;2023-10-13T02:48:47;40.95;;;35.40;;
53879;SDS011;39791;53.184;5.486;2023-10-13T02:51:18;40.03;;;35.95;;
53879;SDS011;39791;53.184;5.486;2023-10-13T02:53:56;41.15;;;36.63;;
53879;SDS011;39791;53.184;5.486;2023-10-13T02:56:28;39.88;;;35.75;;
53879;SDS011;39791;53.184;5.486;2023-10-13T02:58:54;41.85;;;37.58;;
53879;SDS011;39791;53.184;5.486;2023-10-13T03:01:23;43.78;;;39.03;;
53879;SDS011;39791;53.184;5.486;2023-10-13T03:03:53;42.17;;;37.83;;
53879;SDS011;39791;53.184;5.486;2023-10-13T03:06:21;39.92;;;36.05;;
53879;SDS011;39791;53.184;5.486;2023-10-13T03:08:49;40.90;;;36.95;;
53879;SDS011;39791;53.184;5.486;2023-10-13T03:11:15;40.95;;;36.80;;
53879;SDS011;39791;53.184;5.486;2023-10-13T03:13:46;39.00;;;35.15;;
53879;SDS011;39791;53.184;5.486;2023-10-13T03:16:15;39.95;;;35.72;;
53879;SDS011;39791;53.184;5.486;2023-10-13T03:18:41;44.97;;;36.42;;
53879;SDS011;39791;53.184;5.486;2023-10-13T03:21:21;42.15;;;37.30;;
53879;SDS011;39791;53.184;5.486;2023-10-13T03:24:00;45.10;;;39.38;;
53879;SDS011;39791;53.184;5.486;2023-10-13T03:26:32;44.92;;;39.92;;
53879;SDS011;39791;53.184;5.486;2023-10-13T03:29:03;46.83;;;41.75;;
53879;SDS011;39791;53.184;5.486;2023-10-13T03:31:32;53.08;;;44.88;;
53879;SDS011;39791;53.184;5.486;2023-10-13T03:34:02;51.50;;;44.53;;
53879;SDS011;39791;53.184;5.486;2023-10-13T03:36:29;57.92;;;45.75;;
53879;SDS011;39791;53.184;5.486;2023-10-13T03:39:13;57.85;;;46.55;;
53879;SDS011;39791;53.184;5.486;2023-10-13T03:41:39;55.65;;;46.08;;
53879;SDS011;39791;53.184;5.486;2023-10-13T03:44:05;57.60;;;46.45;;
53879;SDS011;39791;53.184;5.486;2023-10-13T03:46:43;63.28;;;46.72;;
53879;SDS011;39791;53.184;5.486;2023-10-13T03:49:12;55.63;;;46.95;;
53879;SDS011;39791;53.184;5.486;2023-10-13T03:51:46;57.17;;;46.65;;
53879;SDS011;39791;53.184;5.486;2023-10-13T03:54:15;56.35;;;45.95;;
53879;SDS011;39791;53.184;5.486;2023-10-13T03:56:42;52.53;;;45.67;;
53879;SDS011;39791;53.184;5.486;2023-10-13T03:59:11;59.50;;;46.53;;
53879;SDS011;39791;53.184;5.486;2023-10-13T04:01:40;56.33;;;46.67;;
53879;SDS011;39791;53.184;5.486;2023-10-13T04:04:15;55.17;;;46.00;;
53879;SDS011;39791;53.184;5.486;2023-10-13T04:06:54;51.85;;;45.00;;
53879;SDS011;39791;53.184;5.486;2023-10-13T04:09:38;53.67;;;44.08;;
53879;SDS011;39791;53.184;5.486;2023-10-13T04:12:05;54.38;;;42.80;;
53879;SDS011;39791;53.184;5.486;2023-10-13T04:14:40;53.30;;;43.42;;
53879;SDS011;39791;53.184;5.486;2023-10-13T04:17:28;53.33;;;43.85;;
53879;SDS011;39791;53.184;5.486;2023-10-13T04:19:56;50.75;;;43.20;;
53879;SDS011;39791;53.184;5.486;2023-10-13T04:22:31;50.13;;;42.50;;
53879;SDS011;39791;53.184;5.486;2023-10-13T04:25:13;51.85;;;42.58;;
53879;SDS011;39791;53.184;5.486;2023-10-13T04:27:57;52.33;;;40.80;;
53879;SDS011;39791;53.184;5.486;2023-10-13T04:30:41;44.00;;;39.08;;
53879;SDS011;39791;53.184;5.486;2023-10-13T04:33:25;41.08;;;36.67;;
53879;SDS011;39791;53.184;5.486;2023-10-13T04:38:48;36.35;;;32.92;;
53879;SDS011;39791;53.184;5.486;2023-10-13T04:41:39;34.95;;;31.50;;
53879;SDS011;39791;53.184;5.486;2023-10-13T04:44:08;33.75;;;30.20;;
53879;SDS011;39791;53.184;5.486;2023-10-13T04:46:54;32.33;;;29.33;;
53879;SDS011;39791;53.184;5.486;2023-10-13T04:49:33;34.00;;;30.70;;
53879;SDS011;39791;53.184;5.486;2023-10-13T04:52:07;34.47;;;31.17;;
53879;SDS011;39791;53.184;5.486;2023-10-13T04:54:33;35.63;;;32.10;;
53879;SDS011;39791;53.184;5.486;2023-10-13T04:57:17;33.90;;;30.58;;
53879;SDS011;39791;53.184;5.486;2023-10-13T05:00:04;35.47;;;32.05;;
53879;SDS011;39791;53.184;5.486;2023-10-13T05:02:43;39.45;;;35.65;;
53879;SDS011;39791;53.184;5.486;2023-10-13T05:05:25;42.50;;;38.22;;
53879;SDS011;39791;53.184;5.486;2023-10-13T05:07:51;40.95;;;37.17;;
53879;SDS011;39791;53.184;5.486;2023-10-13T05:10:36;39.72;;;36.03;;
53879;SDS011;39791;53.184;5.486;2023-10-13T05:13:21;39.33;;;35.85;;
53879;SDS011;39791;53.184;5.486;2023-10-13T05:16:05;39.60;;;35.60;;
53879;SDS011;39791;53.184;5.486;2023-10-13T05:18:50;39.05;;;35.25;;
53879;SDS011;39791;53.184;5.486;2023-10-13T05:21:34;38.45;;;34.92;;
53879;SDS011;39791;53.184;5.486;2023-10-13T05:24:18;40.80;;;36.65;;
53879;SDS011;39791;53.184;5.486;2023-10-13T05:27:03;36.85;;;33.53;;
53879;SDS011;39791;53.184;5.486;2023-10-13T05:29:47;38.05;;;34.53;;
53879;SDS011;39791;53.184;5.486;2023-10-13T05:32:32;37.20;;;33.33;;
53879;SDS011;39791;53.184;5.486;2023-10-13T05:35:19;37.15;;;33.83;;
53879;SDS011;39791;53.184;5.486;2023-10-13T05:38:04;35.90;;;32.85;;
53879;SDS011;39791;53.184;5.486;2023-10-13T05:40:56;36.33;;;33.22;;
53879;SDS011;39791;53.184;5.486;2023-10-13T05:43:44;35.17;;;32.07;;
53879;SDS011;39791;53.184;5.486;2023-10-13T05:46:28;33.58;;;30.52;;
53879;SDS011;39791;53.184;5.486;2023-10-13T05:49:07;33.57;;;30.43;;
53879;SDS011;39791;53.184;5.486;2023-10-13T05:51:37;33.97;;;30.83;;
53879;SDS011;39791;53.184;5.486;2023-10-13T05:54:12;33.80;;;30.73;;
53879;SDS011;39791;53.184;5.486;2023-10-13T05:56:39;33.75;;;30.80;;
53879;SDS011;39791;53.184;5.486;2023-10-13T05:59:30;32.22;;;29.52;;
53879;SDS011;39791;53.184;5.486;2023-10-13T06:02:16;32.88;;;29.92;;
53879;SDS011;39791;53.184;5.486;2023-10-13T06:05:01;31.75;;;29.13;;
53879;SDS011;39791;53.184;5.486;2023-10-13T06:07:46;31.70;;;28.95;;
53879;SDS011;39791;53.184;5.486;2023-10-13T06:10:30;33.88;;;31.05;;
53879;SDS011;39791;53.184;5.486;2023-10-13T06:13:15;32.55;;;29.33;;
53879;SDS011;39791;53.184;5.486;2023-10-13T06:15:59;35.38;;;32.25;;
53879;SDS011;39791;53.184;5.486;2023-10-13T06:18:43;33.42;;;30.27;;
53879;SDS011;39791;53.184;5.486;2023-10-13T06:21:27;36.67;;;33.40;;
53879;SDS011;39791;53.184;5.486;2023-10-13T06:24:11;41.58;;;34.22;;
53879;SDS011;39791;53.184;5.486;2023-10-13T06:26:56;65.55;;;41.80;;
53879;SDS011;39791;53.184;5.486;2023-10-13T06:29:40;57.47;;;35.10;;
53879;SDS011;39791;53.184;5.486;2023-10-13T06:32:06;65.05;;;38.03;;
53879;SDS011;39791;53.184;5.486;2023-10-13T06:34:37;69.47;;;37.80;;
53879;SDS011;39791;53.184;5.486;2023-10-13T06:37:07;72.55;;;36.67;;
53879;SDS011;39791;53.184;5.486;2023-10-13T06:39:55;86.28;;;38.75;;
53879;SDS011;39791;53.184;5.486;2023-10-13T06:42:25;81.43;;;35.42;;
53879;SDS011;39791;53.184;5.486;2023-10-13T06:44:55;70.45;;;31.67;;
53879;SDS011;39791;53.184;5.486;2023-10-13T06:47:21;49.72;;;29.67;;
53879;SDS011;39791;53.184;5.486;2023-10-13T06:49:48;50.00;;;29.30;;
53879;SDS011;39791;53.184;5.486;2023-10-13T06:52:16;40.28;;;30.05;;
53879;SDS011;39791;53.184;5.486;2023-10-13T06:54:42;51.28;;;34.67;;
53879;SDS011;39791;53.184;5.486;2023-10-13T06:57:09;68.78;;;34.45;;
53879;SDS011;39791;53.184;5.486;2023-10-13T06:59:45;51.33;;;34.45;;
53879;SDS011;39791;53.184;5.486;2023-10-13T07:02:12;65.20;;;34.75;;
53879;SDS011;39791;53.184;5.486;2023-10-13T07:04:49;74.20;;;36.10;;
53879;SDS011;39791;53.184;5.486;2023-10-13T07:07:25;58.85;;;35.35;;
53879;SDS011;39791;53.184;5.486;2023-10-13T07:09:50;56.20;;;34.47;;
53879;SDS011;39791;53.184;5.486;2023-10-13T07:12:23;60.10;;;35.10;;
53879;SDS011;39791;53.184;5.486;2023-10-13T07:14:51;53.30;;;34.80;;
53879;SDS011;39791;53.184;5.486;2023-10-13T07:17:18;58.60;;;34.92;;
53879;SDS011;39791;53.184;5.486;2023-10-13T07:19:54;51.95;;;37.03;;
53879;SDS011;39791;53.184;5.486;2023-10-13T07:22:24;55.13;;;35.47;;
53879;SDS011;39791;53.184;5.486;2023-10-13T07:24:52;57.03;;;35.08;;
53879;SDS011;39791;53.184;5.486;2023-10-13T07:27:22;60.03;;;36.55;;
53879;SDS011;39791;53.184;5.486;2023-10-13T07:29:51;53.15;;;35.65;;
53879;SDS011;39791;53.184;5.486;2023-10-13T07:32:39;50.65;;;34.30;;
53879;SDS011;39791;53.184;5.486;2023-10-13T07:35:10;51.53;;;35.75;;
53879;SDS011;39791;53.184;5.486;2023-10-13T07:37:37;48.72;;;33.97;;
53879;SDS011;39791;53.184;5.486;2023-10-13T07:40:07;48.17;;;33.78;;
53879;SDS011;39791;53.184;5.486;2023-10-13T07:43:07;49.55;;;35.00;;
53879;SDS011;39791;53.184;5.486;2023-10-13T07:45:37;50.42;;;35.75;;
53879;SDS011;39791;53.184;5.486;2023-10-13T07:48:03;50.33;;;34.33;;
53879;SDS011;39791;53.184;5.486;2023-10-13T07:50:57;48.33;;;32.92;;
53879;SDS011;39791;53.184;5.486;2023-10-13T07:53:28;55.10;;;33.38;;
53879;SDS011;39791;53.184;5.486;2023-10-13T07:55:59;50.28;;;33.03;;
53879;SDS011;39791;53.184;5.486;2023-10-13T07:58:30;52.42;;;32.78;;
53879;SDS011;39791;53.184;5.486;2023-10-13T08:00:58;48.78;;;32.88;;
53879;SDS011;39791;53.184;5.486;2023-10-13T08:03:23;45.10;;;33.28;;
53879;SDS011;39791;53.184;5.486;2023-10-13T08:06:04;53.28;;;33.80;;
53879;SDS011;39791;53.184;5.486;2023-10-13T08:08:32;51.47;;;33.42;;
53879;SDS011;39791;53.184;5.486;2023-10-13T08:13:36;45.15;;;30.90;;
53879;SDS011;39791;53.184;5.486;2023-10-13T08:16:12;48.08;;;33.35;;
53879;SDS011;39791;53.184;5.486;2023-10-13T08:18:46;47.80;;;35.58;;
53879;SDS011;39791;53.184;5.486;2023-10-13T08:21:14;47.35;;;33.35;;
53879;SDS011;39791;53.184;5.486;2023-10-13T08:23:51;39.55;;;33.38;;
53879;SDS011;39791;53.184;5.486;2023-10-13T08:26:31;40.03;;;33.22;;
53879;SDS011;39791;53.184;5.486;2023-10-13T08:29:32;40.08;;;34.58;;
53879;SDS011;39791;53.184;5.486;2023-10-13T08:32:36;39.83;;;35.22;;
53879;SDS011;39791;53.184;5.486;2023-10-13T08:35:08;38.80;;;34.75;;
53879;SDS011;39791;53.184;5.486;2023-10-13T08:37:35;39.88;;;35.72;;
53879;SDS011;39791;53.184;5.486;2023-10-13T08:40:24;44.40;;;39.97;;
53879;SDS011;39791;53.184;5.486;2023-10-13T08:43:10;43.25;;;38.72;;
53879;SDS011;39791;53.184;5.486;2023-10-13T08:45:37;45.05;;;40.28;;
53879;SDS011;39791;53.184;5.486;2023-10-13T08:48:10;44.63;;;40.30;;
53879;SDS011;39791;53.184;5.486;2023-10-13T08:50:37;45.58;;;38.97;;
53879;SDS011;39791;53.184;5.486;2023-10-13T08:53:15;44.50;;;39.72;;
53879;SDS011;39791;53.184;5.486;2023-10-13T08:56:12;46.47;;;41.47;;
53879;SDS011;39791;53.184;5.486;2023-10-13T08:58:38;48.22;;;43.10;;
53879;SDS011;39791;53.184;5.486;2023-10-13T09:01:29;46.53;;;41.50;;
53879;SDS011;39791;53.184;5.486;2023-10-13T09:03:59;47.90;;;42.65;;
53879;SDS011;39791;53.184;5.486;2023-10-13T09:06:44;45.65;;;40.75;;
53879;SDS011;39791;53.184;5.486;2023-10-13T09:09:30;47.55;;;41.67;;
53879;SDS011;39791;53.184;5.486;2023-10-13T09:11:59;49.25;;;41.15;;
53879;SDS011;39791;53.184;5.486;2023-10-13T09:14:35;54.67;;;42.47;;
53879;SDS011;39791;53.184;5.486;2023-10-13T09:17:07;48.40;;;42.90;;
53879;SDS011;39791;53.184;5.486;2023-10-13T09:19:46;46.00;;;41.05;;
53879;SDS011;39791;53.184;5.486;2023-10-13T09:22:19;46.92;;;39.95;;
53879;SDS011;39791;53.184;5.486;2023-10-13T09:24:56;45.80;;;40.90;;
53879;SDS011;39791;53.184;5.486;2023-10-13T09:27:30;48.25;;;41.33;;
53879;SDS011;39791;53.184;5.486;2023-10-13T09:30:03;47.10;;;39.53;;
53879;SDS011;39791;53.184;5.486;2023-10-13T09:32:43;48.45;;;40.22;;
53879;SDS011;39791;53.184;5.486;2023-10-13T09:35:17;49.88;;;39.90;;
53879;SDS011;39791;53.184;5.486;2023-10-13T09:37:45;44.08;;;39.35;;
53879;SDS011;39791;53.184;5.486;2023-10-13T09:40:15;45.30;;;37.63;;
53879;SDS011;39791;53.184;5.486;2023-10-13T09:43:10;47.03;;;40.85;;
53879;SDS011;39791;53.184;5.486;2023-10-13T09:45:40;44.58;;;38.95;;
53879;SDS011;39791;53.184;5.486;2023-10-13T09:48:21;50.92;;;39.17;;
53879;SDS011;39791;53.184;5.486;2023-10-13T09:50:53;43.25;;;38.28;;
53879;SDS011;39791;53.184;5.486;2023-10-13T09:53:24;48.50;;;37.88;;
53879;SDS011;39791;53.184;5.486;2023-10-13T09:55:53;48.05;;;43.15;;
53879;SDS011;39791;53.184;5.486;2023-10-13T09:58:36;46.28;;;39.38;;
53879;SDS011;39791;53.184;5.486;2023-10-13T10:01:02;47.30;;;39.05;;
53879;SDS011;39791;53.184;5.486;2023-10-13T10:03:46;45.83;;;39.70;;
53879;SDS011;39791;53.184;5.486;2023-10-13T10:06:23;46.45;;;38.25;;
53879;SDS011;39791;53.184;5.486;2023-10-13T10:09:07;45.10;;;39.25;;
53879;SDS011;39791;53.184;5.486;2023-10-13T10:11:56;45.30;;;37.45;;
53879;SDS011;39791;53.184;5.486;2023-10-13T10:17:11;43.95;;;38.30;;
53879;SDS011;39791;53.184;5.486;2023-10-13T10:19:51;45.20;;;38.25;;
53879;SDS011;39791;53.184;5.486;2023-10-13T10:22:25;47.00;;;39.88;;
53879;SDS011;39791;53.184;5.486;2023-10-13T10:24:58;47.88;;;37.88;;
53879;SDS011;39791;53.184;5.486;2023-10-13T10:27:28;43.17;;;36.13;;
53879;SDS011;39791;53.184;5.486;2023-10-13T10:29:58;42.15;;;37.15;;
53879;SDS011;39791;53.184;5.486;2023-10-13T10:32:34;44.67;;;35.08;;
53879;SDS011;39791;53.184;5.486;2023-10-13T10:35:07;45.85;;;34.88;;
53879;SDS011;39791;53.184;5.486;2023-10-13T10:37:34;47.03;;;35.50;;
53879;SDS011;39791;53.184;5.486;2023-10-13T10:40:06;46.17;;;34.97;;
53879;SDS011;39791;53.184;5.486;2023-10-13T10:42:44;46.65;;;34.42;;
53879;SDS011;39791;53.184;5.486;2023-10-13T10:45:15;44.00;;;33.28;;
53879;SDS011;39791;53.184;5.486;2023-10-13T10:47:47;41.15;;;31.50;;
53879;SDS011;39791;53.184;5.486;2023-10-13T10:50:13;48.58;;;33.08;;
53879;SDS011;39791;53.184;5.486;2023-10-13T10:52:52;46.40;;;33.60;;
53879;SDS011;39791;53.184;5.486;2023-10-13T10:55:22;43.97;;;33.22;;
53879;SDS011;39791;53.184;5.486;2023-10-13T10:57:59;45.28;;;34.00;;
53879;SDS011;39791;53.184;5.486;2023-10-13T11:00:32;39.17;;;31.08;;
53879;SDS011;39791;53.184;5.486;2023-10-13T11:03:11;44.13;;;31.08;;
53879;SDS011;39791;53.184;5.486;2023-10-13T11:05:44;43.53;;;32.28;;
53879;SDS011;39791;53.184;5.486;2023-10-13T11:08:26;42.65;;;32.45;;
53879;SDS011;39791;53.184;5.486;2023-10-13T11:13:25;42.10;;;31.35;;
53879;SDS011;39791;53.184;5.486;2023-10-13T11:15:55;37.40;;;29.75;;
53879;SDS011;39791;53.184;5.486;2023-10-13T11:18:28;36.35;;;29.70;;
53879;SDS011;39791;53.184;5.486;2023-10-13T11:21:03;40.83;;;29.67;;
53879;SDS011;39791;53.184;5.486;2023-10-13T11:23:32;41.25;;;28.75;;
53879;SDS011;39791;53.184;5.486;2023-10-13T11:26:01;34.33;;;28.48;;
53879;SDS011;39791;53.184;5.486;2023-10-13T11:28:29;40.17;;;30.52;;
53879;SDS011;39791;53.184;5.486;2023-10-13T11:30:56;37.78;;;27.45;;
53879;SDS011;39791;53.184;5.486;2023-10-13T11:33:35;36.97;;;29.75;;
53879;SDS011;39791;53.184;5.486;2023-10-13T11:36:01;45.88;;;30.90;;
53879;SDS011;39791;53.184;5.486;2023-10-13T11:38:29;45.42;;;31.40;;
53879;SDS011;39791;53.184;5.486;2023-10-13T11:41:05;45.42;;;33.63;;
53879;SDS011;39791;53.184;5.486;2023-10-13T11:43:31;53.15;;;34.47;;
53879;SDS011;39791;53.184;5.486;2023-10-13T11:46:00;72.63;;;40.78;;
53879;SDS011;39791;53.184;5.486;2023-10-13T11:48:39;69.60;;;41.00;;
53879;SDS011;39791;53.184;5.486;2023-10-13T11:51:08;86.63;;;42.38;;
53879;SDS011;39791;53.184;5.486;2023-10-13T11:53:42;86.35;;;42.88;;
53879;SDS011;39791;53.184;5.486;2023-10-13T11:56:09;88.47;;;44.72;;
53879;SDS011;39791;53.184;5.486;2023-10-13T11:58:36;68.13;;;42.15;;
53879;SDS011;39791;53.184;5.486;2023-10-13T12:01:02;68.95;;;41.63;;
53879;SDS011;39791;53.184;5.486;2023-10-13T12:06:24;63.30;;;40.15;;
53879;SDS011;39791;53.184;5.486;2023-10-13T12:09:08;56.58;;;40.53;;
53879;SDS011;39791;53.184;5.486;2023-10-13T12:11:40;50.45;;;38.20;;
53879;SDS011;39791;53.184;5.486;2023-10-13T12:14:10;54.95;;;38.67;;
53879;SDS011;39791;53.184;5.486;2023-10-13T12:16:43;52.35;;;37.90;;
53879;SDS011;39791;53.184;5.486;2023-10-13T12:19:22;51.20;;;36.50;;
53879;SDS011;39791;53.184;5.486;2023-10-13T12:21:51;52.90;;;38.13;;
53879;SDS011;39791;53.184;5.486;2023-10-13T12:24:19;54.03;;;38.85;;
53879;SDS011;39791;53.184;5.486;2023-10-13T12:27:00;55.95;;;37.83;;
53879;SDS011;39791;53.184;5.486;2023-10-13T12:29:48;48.58;;;36.95;;
53879;SDS011;39791;53.184;5.486;2023-10-13T12:32:17;52.13;;;38.20;;
53879;SDS011;39791;53.184;5.486;2023-10-13T12:34:55;55.03;;;39.13;;
53879;SDS011;39791;53.184;5.486;2023-10-13T12:37:24;59.78;;;38.78;;
53879;SDS011;39791;53.184;5.486;2023-10-13T12:40:07;66.20;;;41.88;;
53879;SDS011;39791;53.184;5.486;2023-10-13T12:42:52;64.68;;;40.65;;
53879;SDS011;39791;53.184;5.486;2023-10-13T12:45:40;55.40;;;39.10;;
53879;SDS011;39791;53.184;5.486;2023-10-13T12:48:25;62.40;;;42.22;;
53879;SDS011;39791;53.184;5.486;2023-10-13T12:51:10;74.82;;;42.25;;
53879;SDS011;39791;53.184;5.486;2023-10-13T12:53:48;66.43;;;42.58;;
53879;SDS011;39791;53.184;5.486;2023-10-13T12:56:15;69.72;;;41.55;;
53879;SDS011;39791;53.184;5.486;2023-10-13T12:58:42;66.05;;;40.78;;
53879;SDS011;39791;53.184;5.486;2023-10-13T13:01:17;58.53;;;41.23;;
53879;SDS011;39791;53.184;5.486;2023-10-13T13:03:58;57.40;;;41.22;;
53879;SDS011;39791;53.184;5.486;2023-10-13T13:06:26;57.90;;;40.83;;
53879;SDS011;39791;53.184;5.486;2023-10-13T13:08:55;64.85;;;42.22;;
53879;SDS011;39791;53.184;5.486;2023-10-13T13:11:22;62.53;;;41.10;;
53879;SDS011;39791;53.184;5.486;2023-10-13T13:13:48;59.33;;;45.00;;
53879;SDS011;39791;53.184;5.486;2023-10-13T13:16:14;60.97;;;41.75;;
53879;SDS011;39791;53.184;5.486;2023-10-13T13:18:46;65.47;;;41.55;;
53879;SDS011;39791;53.184;5.486;2023-10-13T13:21:12;73.90;;;44.20;;
53879;SDS011;39791;53.184;5.486;2023-10-13T13:23:44;63.67;;;43.03;;
53879;SDS011;39791;53.184;5.486;2023-10-13T13:26:10;65.82;;;43.80;;
53879;SDS011;39791;53.184;5.486;2023-10-13T13:28:46;64.43;;;42.38;;
53879;SDS011;39791;53.184;5.486;2023-10-13T13:31:18;72.03;;;44.47;;
53879;SDS011;39791;53.184;5.486;2023-10-13T13:33:50;64.78;;;44.42;;
53879;SDS011;39791;53.184;5.486;2023-10-13T13:36:15;71.25;;;45.78;;
53879;SDS011;39791;53.184;5.486;2023-10-13T13:38:44;74.03;;;46.13;;
53879;SDS011;39791;53.184;5.486;2023-10-13T13:41:23;69.32;;;42.00;;
53879;SDS011;39791;53.184;5.486;2023-10-13T13:43:49;68.85;;;43.58;;
53879;SDS011;39791;53.184;5.486;2023-10-13T13:46:15;66.75;;;43.03;;
53879;SDS011;39791;53.184;5.486;2023-10-13T13:48:42;68.03;;;42.90;;
53879;SDS011;39791;53.184;5.486;2023-10-13T13:51:08;70.13;;;41.85;;
53879;SDS011;39791;53.184;5.486;2023-10-13T13:53:43;69.43;;;43.28;;
53879;SDS011;39791;53.184;5.486;2023-10-13T13:56:15;76.05;;;44.38;;
53879;SDS011;39791;53.184;5.486;2023-10-13T13:58:44;65.40;;;45.58;;
53879;SDS011;39791;53.184;5.486;2023-10-13T14:01:17;65.68;;;44.60;;
53879;SDS011;39791;53.184;5.486;2023-10-13T14:03:44;72.63;;;43.03;;
53879;SDS011;39791;53.184;5.486;2023-10-13T14:06:12;63.50;;;42.38;;
53879;SDS011;39791;53.184;5.486;2023-10-13T14:08:43;59.80;;;41.55;;
53879;SDS011;39791;53.184;5.486;2023-10-13T14:11:26;70.03;;;42.70;;
53879;SDS011;39791;53.184;5.486;2023-10-13T14:14:05;59.78;;;41.63;;
53879;SDS011;39791;53.184;5.486;2023-10-13T14:16:37;67.18;;;39.95;;
53879;SDS011;39791;53.184;5.486;2023-10-13T14:19:09;70.75;;;41.80;;
53879;SDS011;39791;53.184;5.486;2023-10-13T14:21:36;61.33;;;39.20;;
53879;SDS011;39791;53.184;5.486;2023-10-13T14:24:01;62.95;;;39.85;;
53879;SDS011;39791;53.184;5.486;2023-10-13T14:26:27;60.92;;;39.60;;
53879;SDS011;39791;53.184;5.486;2023-10-13T14:28:54;65.40;;;38.97;;
53879;SDS011;39791;53.184;5.486;2023-10-13T14:31:39;64.05;;;39.85;;
53879;SDS011;39791;53.184;5.486;2023-10-13T14:34:05;60.17;;;39.92;;
53879;SDS011;39791;53.184;5.486;2023-10-13T14:36:31;60.90;;;38.53;;
53879;SDS011;39791;53.184;5.486;2023-10-13T14:39:00;62.90;;;40.13;;
53879;SDS011;39791;53.184;5.486;2023-10-13T14:41:27;73.93;;;42.47;;
53879;SDS011;39791;53.184;5.486;2023-10-13T14:43:52;65.22;;;39.60;;
53879;SDS011;39791;53.184;5.486;2023-10-13T14:46:21;60.47;;;38.90;;
53879;SDS011;39791;53.184;5.486;2023-10-13T14:48:53;70.85;;;39.42;;
53879;SDS011;39791;53.184;5.486;2023-10-13T14:51:19;74.85;;;41.53;;
53879;SDS011;39791;53.184;5.486;2023-10-13T14:53:46;61.92;;;38.10;;
53879;SDS011;39791;53.184;5.486;2023-10-13T14:56:13;66.00;;;41.33;;
53879;SDS011;39791;53.184;5.486;2023-10-13T14:58:39;76.18;;;42.92;;
53879;SDS011;39791;53.184;5.486;2023-10-13T15:01:15;79.60;;;40.47;;
53879;SDS011;39791;53.184;5.486;2023-10-13T15:03:42;73.30;;;40.50;;
53879;SDS011;39791;53.184;5.486;2023-10-13T15:08:51;68.05;;;40.58;;
53879;SDS011;39791;53.184;5.486;2023-10-13T15:11:19;74.85;;;39.75;;
53879;SDS011;39791;53.184;5.486;2023-10-13T15:13:55;73.45;;;41.17;;
53879;SDS011;39791;53.184;5.486;2023-10-13T15:16:25;59.83;;;38.75;;
53879;SDS011;39791;53.184;5.486;2023-10-13T15:18:52;74.85;;;40.08;;
53879;SDS011;39791;53.184;5.486;2023-10-13T15:21:22;68.30;;;38.78;;
53879;SDS011;39791;53.184;5.486;2023-10-13T15:23:53;63.80;;;38.90;;